Time;durP1;ratioP1;P1;durP2;ratioP2;P2;SDS_P1;SDS_P2;PMS_P1;PMS_P2;Temp;Humidity;BMP_temperature;BMP_pressure;BME280_temperature;BME280_humidity;BME280_pressure;Samples;Min_cycle;Max_cycle;Signal;HPM_P1;HPM_P2
2022/04/27 00:01:54;;;;;;;1.58;1.08;;;;;;;21.87;38.34;99198.69;5046851;28;20088;-58
2022/04/27 00:04:19;;;;;;;1.10;0.80;;;;;;;21.86;38.06;99192.34;5046532;28;20418;-65
2022/04/27 00:06:48;;;;;;;1.85;1.10;;;;;;;21.85;38.07;99193.50;5046397;28;20571;-65
2022/04/27 00:09:14;;;;;;;1.42;0.95;;;;;;;21.88;38.44;99194.72;5046612;28;20163;-66
2022/04/27 00:11:39;;;;;;;1.58;1.10;;;;;;;21.89;38.32;99196.31;5046507;28;20080;-66
2022/04/27 00:14:05;;;;;;;1.40;1.08;;;;;;;21.88;38.21;99192.72;5107105;28;20054;-65
2022/04/27 00:16:30;;;;;;;1.55;1.10;;;;;;;21.88;38.49;99194.72;5110166;28;20039;-65
2022/04/27 00:18:56;;;;;;;1.73;1.02;;;;;;;21.83;38.50;99190.31;5112668;28;20055;-65
2022/04/27 00:21:22;;;;;;;1.67;1.08;;;;;;;21.87;38.24;99193.94;5093016;28;20134;-65
2022/04/27 00:23:47;;;;;;;1.80;1.05;;;;;;;21.88;38.31;99195.53;5112973;28;20048;-65
2022/04/27 00:26:13;;;;;;;1.45;1.00;;;;;;;21.88;38.38;99200.28;5112785;28;20032;-57
2022/04/27 00:28:39;;;;;;;2.05;1.10;;;;;;;21.87;38.37;99199.50;5112598;28;20055;-65
2022/04/27 00:31:04;;;;;;;2.00;1.20;;;;;;;21.87;38.07;99198.69;5112724;28;20043;-65
2022/04/27 00:33:31;;;;;;;1.50;1.00;;;;;;;21.88;38.28;99191.94;5112741;28;20097;-65
2022/04/27 00:35:57;;;;;;;1.15;0.80;;;;;;;21.86;38.09;99197.91;5112647;28;20043;-57
2022/04/27 00:38:22;;;;;;;1.45;0.95;;;;;;;21.84;37.90;99199.47;5112653;28;20457;-57
2022/04/27 00:40:48;;;;;;;1.75;1.20;;;;;;;21.85;37.92;99210.19;5112592;28;20384;-65
2022/04/27 00:43:14;;;;;;;1.27;0.90;;;;;;;21.86;37.97;99200.69;5112308;28;20445;-65
2022/04/27 00:45:40;;;;;;;1.08;0.80;;;;;;;21.84;37.76;99205.03;5112411;28;20474;-65
2022/04/27 00:48:06;;;;;;;1.27;0.88;;;;;;;21.86;37.91;99209.03;5112460;28;20511;-66
2022/04/27 00:50:32;;;;;;;1.90;1.00;;;;;;;21.85;38.20;99201.03;5112369;28;20088;-65
2022/04/27 00:53:00;;;;;;;1.60;1.00;;;;;;;21.84;37.74;99207.81;5112317;28;20043;-65
2022/04/27 00:55:25;;;;;;;1.60;0.95;;;;;;;21.84;37.72;99207.81;5112245;28;20380;-65
2022/04/27 00:57:51;;;;;;;1.13;0.82;;;;;;;21.84;37.89;99207.81;5112153;28;20051;-65
2022/04/27 01:00:17;;;;;;;1.42;1.02;;;;;;;21.84;37.78;99205.81;5112265;28;20092;-65
2022/04/27 01:02:43;;;;;;;1.15;0.80;;;;;;;21.83;37.58;99209.78;5112335;28;20035;-66
2022/04/27 01:05:11;;;;;;;1.10;0.80;;;;;;;21.83;37.76;99203.44;5112058;28;20038;-65
2022/04/27 01:07:41;;;;;;;1.63;1.02;;;;;;;21.82;37.67;99199.84;5108022;28;20516;-65
2022/04/27 01:10:08;;;;;;;1.20;0.90;;;;;;;21.81;37.52;99206.59;5108005;28;21496;-66
2022/04/27 01:12:36;;;;;;;1.38;0.80;;;;;;;21.82;37.46;99201.84;5107771;28;20054;-65
2022/04/27 01:15:02;;;;;;;1.60;1.00;;;;;;;21.82;37.80;99202.63;5107855;28;20135;-65
2022/04/27 01:17:28;;;;;;;1.63;1.02;;;;;;;21.82;37.64;99208.19;5105598;28;20044;-65
2022/04/27 01:19:53;;;;;;;1.60;1.02;;;;;;;21.82;37.53;99199.06;5101165;28;20035;-65
2022/04/27 01:22:20;;;;;;;1.58;0.90;;;;;;;21.79;37.68;99200.63;5105543;28;20181;-65
2022/04/27 01:24:46;;;;;;;1.33;0.90;;;;;;;21.82;37.76;99207.41;5107765;28;20039;-66
2022/04/27 01:27:11;;;;;;;1.33;0.90;;;;;;;21.82;37.71;99207.41;5104969;28;20047;-65
2022/04/27 01:29:37;;;;;;;1.58;1.00;;;;;;;21.81;37.54;99203.81;5107633;28;20050;-66
2022/04/27 01:32:03;;;;;;;1.42;0.90;;;;;;;21.80;37.68;99205.00;5105519;28;20043;-65
2022/04/27 01:34:29;;;;;;;1.52;1.00;;;;;;;21.79;37.56;99208.97;5107445;28;20047;-65
2022/04/27 01:36:54;;;;;;;1.77;0.95;;;;;;;21.82;37.48;99208.19;5105121;28;20054;-65
2022/04/27 01:39:23;;;;;;;1.00;0.80;;;;;;;21.81;37.75;99212.19;5107532;28;20040;-65
2022/04/27 01:41:49;;;;;;;1.20;0.90;;;;;;;21.79;37.59;99206.19;5105048;28;20044;-65
2022/04/27 01:44:15;;;;;;;1.35;0.90;;;;;;;21.79;37.64;99211.78;5107449;28;20040;-66
2022/04/27 01:46:41;;;;;;;1.13;0.77;;;;;;;21.80;37.61;99213.38;5107375;28;20047;-65
2022/04/27 01:49:06;;;;;;;1.15;0.90;;;;;;;21.80;37.35;99210.59;5107378;28;20048;-65
2022/04/27 01:54:16;;;;;;;1.55;1.00;;;;;;;21.78;37.36;99215.72;5102968;28;20447;-66
2022/04/27 01:56:47;;;;;;;1.48;0.90;;;;;;;21.78;37.66;99212.94;5105012;28;20523;-65
2022/04/27 01:59:13;;;;;;;1.80;1.10;;;;;;;21.76;37.48;99220.88;5107190;28;20039;-66
2022/04/27 02:01:39;;;;;;;1.20;0.90;;;;;;;21.74;37.64;99214.91;5107019;28;20499;-65
2022/04/27 02:04:05;;;;;;;1.38;1.05;;;;;;;21.75;37.24;99216.50;5107178;28;20051;-65
2022/04/27 02:06:31;;;;;;;1.65;1.02;;;;;;;21.75;37.64;99218.47;5104887;28;20384;-65
2022/04/27 02:08:57;;;;;;;1.77;1.10;;;;;;;21.74;37.32;99226.03;5106987;28;20039;-66
2022/04/27 02:11:26;;;;;;;1.40;1.00;;;;;;;21.76;37.53;99220.09;5106931;28;20126;-65
2022/04/27 02:13:54;;;;;;;1.63;1.08;;;;;;;21.74;37.38;99223.25;5106973;28;20044;-66
2022/04/27 02:16:28;;;;;;;1.73;1.02;;;;;;;21.74;37.39;99228.81;5098917;28;20063;-65
2022/04/27 02:18:55;;;;;;;1.15;0.90;;;;;;;21.74;37.36;99231.59;5086682;28;20138;-65
2022/04/27 02:21:21;;;;;;;1.40;0.90;;;;;;;21.72;37.66;99217.28;5084187;28;20530;-65
2022/04/27 02:23:47;;;;;;;1.60;1.13;;;;;;;21.71;37.71;99224.81;5084287;28;20052;-65
2022/04/27 02:26:13;;;;;;;1.75;1.20;;;;;;;21.73;37.61;99232.78;5084033;28;20044;-58
2022/04/27 02:28:39;;;;;;;1.73;1.10;;;;;;;21.71;37.58;99226.78;5084067;28;20515;-57
2022/04/27 02:31:04;;;;;;;1.60;1.00;;;;;;;21.71;37.60;99235.16;5086221;28;20048;-58
2022/04/27 02:33:30;;;;;;;1.33;0.90;;;;;;;21.72;37.75;99236.78;5084026;28;20036;-65
2022/04/27 02:35:56;;;;;;;1.35;0.90;;;;;;;21.71;37.71;99235.16;5082035;28;20052;-66
2022/04/27 02:38:22;;;;;;;2.28;1.20;;;;;;;21.71;37.48;99235.94;5083102;28;20079;-65
2022/04/27 02:40:47;;;;;;;1.27;0.90;;;;;;;21.72;37.63;99236.78;5086142;28;20040;-66
2022/04/27 02:43:12;;;;;;;1.55;1.10;;;;;;;21.71;37.74;99238.72;5086159;28;20467;-65
2022/04/27 02:45:39;;;;;;;1.40;0.95;;;;;;;21.72;37.69;99233.97;5083970;28;20043;-66
2022/04/27 02:48:06;;;;;;;1.65;1.00;;;;;;;21.70;37.39;99239.13;5081774;28;20161;-65
2022/04/27 02:53:15;;;;;;;1.63;1.00;;;;;;;21.71;37.39;99240.72;5085967;28;20105;-58
2022/04/27 02:55:41;;;;;;;1.00;0.80;;;;;;;21.70;37.40;99244.69;5082017;28;20044;-58
2022/04/27 02:58:06;;;;;;;1.58;1.00;;;;;;;21.69;37.80;99240.31;5083763;28;20527;-58
2022/04/27 03:00:33;;;;;;;1.67;1.08;;;;;;;21.69;37.40;99243.09;5083630;28;20044;-57
2022/04/27 03:02:58;;;;;;;1.48;0.90;;;;;;;21.71;37.82;99243.50;5083531;28;20132;-58
2022/04/27 03:05:24;;;;;;;1.70;0.90;;;;;;;21.67;37.51;99245.47;5085661;28;20122;-58
2022/04/27 03:07:49;;;;;;;1.45;0.98;;;;;;;21.71;37.39;99251.84;5085734;28;20048;-65
2022/04/27 03:10:15;;;;;;;1.40;1.00;;;;;;;21.69;37.57;99254.22;5083614;28;20036;-65
2022/04/27 03:12:40;;;;;;;1.23;0.82;;;;;;;21.68;37.46;99249.84;5081380;28;20047;-65
2022/04/27 03:15:06;;;;;;;1.63;1.00;;;;;;;21.68;37.26;99253.44;5083477;28;20037;-66
2022/04/27 03:17:31;;;;;;;1.52;0.90;;;;;;;21.68;37.57;99256.22;5081178;28;20075;-65
2022/04/27 03:19:57;;;;;;;1.55;0.90;;;;;;;21.67;37.29;99253.81;5083345;28;20072;-57
2022/04/27 03:22:23;;;;;;;1.30;0.90;;;;;;;21.68;37.30;99269.34;5083302;28;20052;-66
2022/04/27 03:24:48;;;;;;;1.25;0.90;;;;;;;21.66;37.52;99269.72;5085627;28;20048;-65
2022/04/27 03:27:14;;;;;;;1.50;1.05;;;;;;;21.66;37.07;99264.16;5085685;28;20491;-65
2022/04/27 03:29:40;;;;;;;1.33;0.90;;;;;;;21.67;37.38;99270.53;5083524;28;20122;-66
2022/04/27 03:32:06;;;;;;;1.13;0.80;;;;;;;21.64;37.44;99271.28;5085436;28;20047;-65
2022/04/27 03:34:31;;;;;;;1.73;1.00;;;;;;;21.65;37.44;99276.47;5085531;28;20104;-65
2022/04/27 03:36:57;;;;;;;1.58;1.00;;;;;;;21.66;37.34;99269.72;5085464;28;20123;-65
2022/04/27 03:39:22;;;;;;;2.20;1.05;;;;;;;21.66;37.21;99271.72;5085465;28;20456;-65
2022/04/27 03:41:48;;;;;;;1.35;0.90;;;;;;;21.66;37.27;99277.28;5069845;28;20044;-65
2022/04/27 03:44:13;;;;;;;1.30;0.93;;;;;;;21.65;37.16;99278.47;5083216;28;20052;-66
2022/04/27 03:46:39;;;;;;;1.33;0.85;;;;;;;21.64;37.31;99279.63;5070382;28;20044;-65
2022/04/27 03:49:05;;;;;;;1.30;0.85;;;;;;;21.65;37.07;99281.25;5083122;28;20086;-66
2022/04/27 03:51:30;;;;;;;1.80;1.00;;;;;;;21.64;37.35;99276.84;5086336;28;20434;-58
2022/04/27 03:53:56;;;;;;;1.73;0.90;;;;;;;21.64;37.19;99279.63;5084429;28;20139;-57
2022/04/27 03:56:21;;;;;;;1.67;1.00;;;;;;;21.64;37.28;99288.75;5084440;28;20127;-57
2022/04/27 03:58:47;;;;;;;1.38;0.98;;;;;;;21.64;37.42;99279.63;5088770;28;20411;-57
2022/04/27 04:01:12;;;;;;;1.30;0.93;;;;;;;21.63;37.45;99292.75;5084288;28;20075;-57
2022/04/27 04:03:38;;;;;;;1.10;0.82;;;;;;;21.64;37.09;99287.97;5088600;28;20101;-57
2022/04/27 04:06:04;;;;;;;1.55;0.90;;;;;;;21.65;37.12;99292.38;5088587;28;20487;-58
2022/04/27 04:08:29;;;;;;;1.48;1.00;;;;;;;21.64;37.10;99291.56;5088724;28;20043;-57
2022/04/27 04:10:55;;;;;;;1.27;0.90;;;;;;;21.64;37.37;99287.97;5086061;28;20503;-58
2022/04/27 04:13:21;;;;;;;1.42;0.93;;;;;;;21.63;37.11;99289.97;5086789;28;20044;-58
2022/04/27 04:15:46;;;;;;;1.08;0.82;;;;;;;21.64;37.09;99283.19;5086153;28;20048;-66
2022/04/27 04:18:12;;;;;;;1.55;0.82;;;;;;;21.64;37.10;99287.97;5088408;28;20381;-65
2022/04/27 04:20:38;;;;;;;1.00;0.80;;;;;;;21.64;37.31;99301.88;5088440;28;20044;-65
2022/04/27 04:23:04;;;;;;;1.08;0.80;;;;;;;21.63;37.28;99300.28;5088310;28;20094;-66
2022/04/27 04:28:32;;;;;;;1.33;0.88;;;;;;;21.60;37.17;99298.28;5083816;28;20059;-65
2022/04/27 04:31:03;;;;;;;1.65;1.00;;;;;;;21.62;36.94;99316.19;5085873;28;20459;-65
2022/04/27 04:33:29;;;;;;;1.05;0.80;;;;;;;21.61;37.30;99316.59;5088028;28;20127;-66
2022/04/27 04:35:58;;;;;;;1.30;0.80;;;;;;;21.61;37.34;99322.94;5088199;28;20048;-57
2022/04/27 04:38:24;;;;;;;1.35;0.98;;;;;;;21.61;37.08;99325.72;5086006;28;20048;-57
2022/04/27 04:40:52;;;;;;;1.92;1.08;;;;;;;21.60;37.10;99323.34;5088057;28;20512;-58
2022/04/27 04:43:18;;;;;;;1.70;1.00;;;;;;;21.60;37.35;99328.91;5087970;28;20056;-58
2022/04/27 04:45:43;;;;;;;1.00;0.82;;;;;;;21.60;37.16;99328.91;5087927;28;20032;-57
2022/04/27 04:48:09;;;;;;;0.95;0.75;;;;;;;21.60;37.33;99329.69;5088048;28;20036;-58
2022/04/27 04:50:36;;;;;;;1.00;0.70;;;;;;;21.59;37.26;99333.66;5085651;28;20407;-57
2022/04/27 04:53:03;;;;;;;1.50;0.95;;;;;;;21.62;37.21;99332.91;5087823;28;20048;-66
2022/04/27 04:55:29;;;;;;;1.63;1.10;;;;;;;21.60;37.12;99332.47;5085706;28;20036;-66
2022/04/27 04:57:55;;;;;;;1.50;0.80;;;;;;;21.59;36.93;99330.09;5087857;28;20078;-65
2022/04/27 05:00:20;;;;;;;1.40;0.90;;;;;;;21.60;37.01;99337.25;5087699;28;20085;-65
2022/04/27 05:02:46;;;;;;;1.30;0.80;;;;;;;21.60;37.09;99338.06;5086911;28;20054;-65
2022/04/27 05:05:11;;;;;;;1.45;1.00;;;;;;;21.60;37.16;99340.03;5087891;28;20048;-65
2022/04/27 05:07:37;;;;;;;1.58;0.98;;;;;;;21.59;37.46;99349.56;5087737;28;20044;-57
2022/04/27 05:10:04;;;;;;;1.10;0.85;;;;;;;21.58;37.27;99343.22;5087540;28;20048;-58
2022/04/27 05:12:30;;;;;;;2.17;0.90;;;;;;;21.58;37.46;99342.41;5087637;28;20142;-58
2022/04/27 05:14:56;;;;;;;1.63;1.00;;;;;;;21.60;37.42;99345.59;5087646;28;20469;-65
2022/04/27 05:17:23;;;;;;;1.38;1.00;;;;;;;21.58;37.47;99346.00;5085216;28;20052;-65
2022/04/27 05:19:49;;;;;;;2.10;1.30;;;;;;;21.58;37.26;99350.75;5083041;28;20411;-65
2022/04/27 05:22:15;;;;;;;0.90;0.70;;;;;;;21.62;37.58;99355.16;5087503;28;20051;-65
2022/04/27 05:24:41;;;;;;;3.60;1.00;;;;;;;21.67;37.83;99354.03;5087390;28;20471;-58
2022/04/27 05:27:06;;;;;;;1.52;1.00;;;;;;;21.65;37.53;99353.63;5086765;28;20551;-58
2022/04/27 05:32:16;;;;;;;1.50;1.00;;;;;;;21.64;37.71;99357.56;5084151;28;20090;-58
2022/04/27 05:34:42;;;;;;;1.83;1.00;;;;;;;21.64;37.60;99363.13;5085831;28;20068;-58
2022/04/27 05:37:07;;;;;;;3.42;0.85;;;;;;;21.63;37.85;99365.09;5084198;28;20047;-58
2022/04/27 05:39:33;;;;;;;2.03;1.10;;;;;;;21.62;37.74;99360.72;5080608;28;20428;-58
2022/04/27 05:41:58;;;;;;;1.85;1.10;;;;;;;21.63;37.65;99362.31;5087120;28;20051;-58
2022/04/27 05:44:25;;;;;;;1.60;1.00;;;;;;;21.63;37.72;99361.53;5082803;28;20079;-65
2022/04/27 05:46:52;;;;;;;1.40;0.98;;;;;;;21.61;37.95;99363.91;5086995;28;20044;-65
2022/04/27 05:49:19;;;;;;;1.88;1.02;;;;;;;21.63;37.60;99362.31;5087107;28;20046;-58
2022/04/27 05:51:45;;;;;;;1.33;0.93;;;;;;;21.64;37.89;99363.13;5086879;28;20053;-58
2022/04/27 05:54:13;;;;;;;1.67;1.13;;;;;;;21.64;37.77;99365.91;5086906;28;20271;-58
2022/04/27 05:56:40;;;;;;;1.45;0.98;;;;;;;21.63;37.80;99361.53;5086678;28;20048;-58
2022/04/27 05:59:07;;;;;;;1.50;1.00;;;;;;;21.64;37.67;99368.69;5084714;28;20040;-58
2022/04/27 06:01:32;;;;;;;1.27;0.90;;;;;;;21.65;37.65;99368.34;5084833;28;20044;-58
2022/04/27 06:03:58;;;;;;;1.52;1.00;;;;;;;21.65;37.74;99373.91;5084608;28;20108;-58
2022/04/27 06:06:23;;;;;;;1.42;0.98;;;;;;;21.65;37.84;99373.09;5084566;28;20048;-58
2022/04/27 06:08:50;;;;;;;2.05;1.10;;;;;;;21.66;37.78;99366.34;5080068;28;20075;-65
2022/04/27 06:11:22;;;;;;;1.52;1.00;;;;;;;21.66;37.51;99369.13;5082277;28;20101;-65
2022/04/27 06:13:48;;;;;;;1.48;0.93;;;;;;;21.65;37.77;99359.97;5081004;28;20516;-65
2022/04/27 06:16:14;;;;;;;1.48;1.00;;;;;;;21.67;37.49;99367.94;5085626;28;20043;-65
2022/04/27 06:18:41;;;;;;;1.80;0.93;;;;;;;21.67;37.84;99368.75;5089656;28;20043;-64
2022/04/27 06:21:10;;;;;;;2.08;1.30;;;;;;;21.68;37.63;99369.53;5090845;28;20051;-65
2022/04/27 06:23:38;;;;;;;1.92;1.20;;;;;;;21.67;37.35;99365.16;5083689;28;20043;-64
2022/04/27 06:26:05;;;;;;;1.70;1.00;;;;;;;21.69;37.62;99374.72;5090614;28;20060;-65
2022/04/27 06:28:31;;;;;;;2.05;1.23;;;;;;;21.71;37.86;99366.78;5101273;28;20084;-64
2022/04/27 06:30:56;;;;;;;1.30;0.98;;;;;;;21.71;37.67;99371.56;5103041;28;20051;-66
2022/04/27 06:33:22;;;;;;;2.22;1.20;;;;;;;21.71;37.86;99369.56;5103256;28;20044;-57
2022/04/27 06:35:48;;;;;;;3.85;1.20;;;;;;;21.73;37.88;99365.63;5093729;28;20044;-57
2022/04/27 06:38:13;;;;;;;1.80;1.10;;;;;;;21.75;38.15;99369.63;5096812;28;20511;-57
2022/04/27 06:40:40;;;;;;;1.48;0.93;;;;;;;21.75;38.14;99366.03;5096824;28;20055;-58
2022/04/27 06:43:07;;;;;;;1.90;1.10;;;;;;;21.76;38.24;99370.41;5092587;28;20060;-57
2022/04/27 06:45:33;;;;;;;1.75;1.15;;;;;;;21.79;37.90;99376.03;5092709;28;20502;-57
2022/04/27 06:47:59;;;;;;;7.90;1.27;;;;;;;21.79;37.90;99381.59;5094694;28;20162;-58
2022/04/27 06:50:25;;;;;;;1.65;0.98;;;;;;;21.78;37.95;99373.59;5096284;28;20063;-57
2022/04/27 06:52:52;;;;;;;1.58;0.90;;;;;;;21.78;37.88;99381.97;5099984;28;20058;-58
2022/04/27 06:55:18;;;;;;;1.80;1.20;;;;;;;21.77;37.61;99372.00;5100742;28;20165;-57
2022/04/27 06:57:44;;;;;;;1.60;1.02;;;;;;;21.78;37.27;99376.41;5087500;28;20115;-58
2022/04/27 07:00:12;;;;;;;2.25;1.23;;;;;;;21.77;37.60;99372.00;5084395;28;20136;-64
2022/04/27 07:02:41;;;;;;;1.80;1.10;;;;;;;21.79;37.36;99375.22;5087137;28;20040;-64
2022/04/27 07:05:12;;;;;;;2.03;1.00;;;;;;;21.80;37.15;99369.28;5084375;28;20127;-65
2022/04/27 07:07:37;;;;;;;1.90;0.98;;;;;;;21.88;37.27;99373.72;5082348;28;20043;-63
2022/04/27 07:10:03;;;;;;;2.97;1.20;;;;;;;21.93;37.56;99370.59;5084561;28;20044;-62
2022/04/27 07:12:29;;;;;;;2.72;1.45;;;;;;;21.97;37.48;99370.63;5089758;28;20138;-62
2022/04/27 07:14:56;;;;;;;2.38;1.38;;;;;;;21.97;37.71;99363.06;5084284;28;20126;-57
2022/04/27 07:17:25;;;;;;;6.93;1.70;;;;;;;22.00;37.27;99358.69;5099788;28;20044;-56
2022/04/27 07:19:50;;;;;;;3.90;1.50;;;;;;;21.98;37.46;99361.09;5089089;28;20050;-57
2022/04/27 07:22:16;;;;;;;5.25;1.63;;;;;;;21.96;37.40;99358.69;5083959;28;20043;-57
2022/04/27 07:24:44;;;;;;;7.63;2.17;;;;;;;21.93;37.29;99365.03;5082721;28;20135;-58
2022/04/27 07:27:10;;;;;;;3.33;1.45;;;;;;;21.92;37.42;99366.19;5094252;28;20036;-57
2022/04/27 07:29:36;;;;;;;2.85;1.20;;;;;;;21.90;37.51;99367.78;5090347;28;20049;-59
2022/04/27 07:32:01;;;;;;;3.42;1.65;;;;;;;21.92;37.49;99362.59;5080136;28;20048;-57
2022/04/27 07:34:28;;;;;;;4.68;1.55;;;;;;;21.95;37.85;99362.66;5075797;28;20071;-58
2022/04/27 07:36:56;;;;;;;3.55;1.40;;;;;;;22.03;37.98;99362.72;5073300;28;20051;-57
2022/04/27 07:39:22;;;;;;;4.47;1.15;;;;;;;22.11;37.61;99365.22;5071320;28;20046;-57
2022/04/27 07:41:47;;;;;;;2.38;1.30;;;;;;;22.11;37.92;99359.63;5077050;28;20040;-58
2022/04/27 07:44:13;;;;;;;3.05;1.58;;;;;;;22.12;37.98;99363.22;5078637;28;20438;-58
2022/04/27 07:46:39;;;;;;;5.75;1.70;;;;;;;22.12;37.92;99363.22;5082319;28;20200;-63
2022/04/27 07:49:04;;;;;;;6.95;1.58;;;;;;;22.16;37.67;99361.28;5086778;28;20043;-60
2022/04/27 07:51:30;;;;;;;3.47;1.60;;;;;;;22.14;38.00;99355.28;5083182;28;20040;-58
2022/04/27 07:53:55;;;;;;;3.25;1.55;;;;;;;22.13;38.16;99350.91;5082232;28;20033;-57
2022/04/27 07:56:21;;;;;;;4.13;1.60;;;;;;;22.11;38.21;99354.06;5083880;28;20063;-57
2022/04/27 07:58:47;;;;;;;5.07;1.50;;;;;;;22.09;38.27;99350.06;5084168;28;20352;-57
2022/04/27 08:01:12;;;;;;;5.05;1.92;;;;;;;22.10;38.08;99349.69;5080151;28;20036;-57
2022/04/27 08:03:38;;;;;;;3.65;1.73;;;;;;;22.10;37.87;99341.34;5078625;28;20047;-57
2022/04/27 08:06:04;;;;;;;4.82;1.58;;;;;;;22.15;37.96;99351.31;5074290;28;20080;-57
2022/04/27 08:08:33;;;;;;;4.25;1.67;;;;;;;22.14;37.46;99346.91;5084510;28;20047;-57
2022/04/27 08:10:58;;;;;;;4.45;1.70;;;;;;;22.12;37.52;99346.50;5086929;28;20446;-57
2022/04/27 08:13:24;;;;;;;2.78;1.50;;;;;;;22.08;37.57;99349.28;5078928;28;20481;-56
2022/04/27 08:15:50;;;;;;;2.30;1.38;;;;;;;22.07;37.33;99341.25;5079014;28;20112;-57
2022/04/27 08:18:16;;;;;;;3.95;1.40;;;;;;;22.06;37.72;99345.22;5078771;28;20028;-63
2022/04/27 08:23:31;;;;;;;2.13;1.38;;;;;;;22.05;37.51;99350.00;5082914;28;20054;-62
2022/04/27 08:25:59;;;;;;;2.30;1.38;;;;;;;22.06;37.49;99348.00;5083999;28;20067;-62
2022/04/27 08:28:26;;;;;;;2.95;1.40;;;;;;;22.05;37.63;99357.56;5088159;28;20043;-63
2022/04/27 08:30:53;;;;;;;2.60;1.50;;;;;;;22.03;37.74;99351.59;5083870;28;20160;-61
2022/04/27 08:33:19;;;;;;;2.53;1.40;;;;;;;22.08;37.42;99345.66;5077264;28;20040;-63
2022/04/27 08:35:46;;;;;;;2.38;1.33;;;;;;;22.06;37.40;99353.59;5078998;28;20079;-57
2022/04/27 08:38:12;;;;;;;2.42;1.30;;;;;;;22.06;37.33;99345.22;5086341;28;20055;-57
2022/04/27 08:40:41;;;;;;;4.95;1.35;;;;;;;22.07;37.49;99349.63;5085084;28;20052;-57
2022/04/27 08:43:09;;;;;;;2.05;1.30;;;;;;;22.09;37.20;99344.50;5079816;28;20044;-58
2022/04/27 08:45:35;;;;;;;2.35;1.30;;;;;;;22.09;37.82;99338.94;5090991;28;20051;-58
2022/04/27 08:48:01;;;;;;;4.00;1.20;;;;;;;22.10;37.57;99334.97;5092391;28;20576;-59
2022/04/27 08:50:28;;;;;;;4.38;1.17;;;;;;;22.14;37.43;99336.56;5083173;28;20036;-60
2022/04/27 08:52:55;;;;;;;6.63;1.48;;;;;;;22.20;37.51;99339.81;5090616;28;20044;-58
2022/04/27 08:55:21;;;;;;;2.83;1.20;;;;;;;22.16;37.42;99339.78;5090247;28;20039;-58
2022/04/27 08:57:48;;;;;;;2.13;1.20;;;;;;;22.14;37.32;99336.56;5084906;28;20055;-58
2022/04/27 09:00:18;;;;;;;3.63;1.65;;;;;;;22.15;37.01;99343.78;5091217;28;20036;-58
2022/04/27 09:02:44;;;;;;;2.30;1.25;;;;;;;22.16;37.03;99342.59;5081530;28;20049;-58
2022/04/27 09:05:18;;;;;;;3.53;1.33;;;;;;;22.17;36.71;99346.16;5091779;28;20036;-58
2022/04/27 09:07:56;;;;;;;2.25;1.40;;;;;;;22.15;36.92;99337.41;5114802;28;20427;-58
2022/04/27 09:10:24;;;;;;;7.20;1.70;;;;;;;22.16;36.75;99334.22;5106825;27;20495;-64
2022/04/27 09:12:55;;;;;;;3.13;1.38;;;;;;;22.14;36.47;99336.56;5112686;27;20135;-64
2022/04/27 09:15:27;;;;;;;3.15;1.40;;;;;;;22.13;36.44;99340.53;5118943;28;20088;-64
2022/04/27 09:20:47;;;;;;;3.25;1.50;;;;;;;22.17;36.49;99330.25;5115906;27;20715;-59
2022/04/27 09:23:41;;;;;;;2.42;1.50;;;;;;;22.18;36.46;99331.03;5114890;28;20541;-59
2022/04/27 09:26:19;;;;;;;2.95;1.45;;;;;;;22.21;36.60;99335.84;5114794;28;20107;-59
2022/04/27 09:28:50;;;;;;;3.35;1.60;;;;;;;22.25;36.93;99336.66;5114073;28;20093;-59
2022/04/27 09:31:44;;;;;;;4.07;1.50;;;;;;;22.25;36.69;99334.69;5113689;27;20078;-58
2022/04/27 09:34:28;;;;;;;2.55;1.42;;;;;;;22.28;36.65;99329.50;5101820;27;20047;-59
2022/04/27 09:37:04;;;;;;;3.17;1.50;;;;;;;22.25;36.77;99317.97;5116703;27;20047;-59
2022/04/27 09:39:30;;;;;;;3.03;1.65;;;;;;;22.25;36.85;99323.53;5111401;27;20046;-59
2022/04/27 09:42:04;;;;;;;2.85;1.48;;;;;;;22.24;36.75;99318.34;5110506;27;20093;-59
2022/04/27 09:44:35;;;;;;;3.10;1.60;;;;;;;22.25;36.90;99322.75;5108673;27;20066;-59
2022/04/27 09:47:05;;;;;;;3.40;1.40;;;;;;;22.31;36.75;99317.63;5119331;27;20059;-59
2022/04/27 09:49:36;;;;;;;3.17;1.60;;;;;;;22.31;36.77;99317.63;5116349;28;20043;-59
2022/04/27 09:52:05;;;;;;;3.67;2.00;;;;;;;22.28;36.59;99315.59;5116346;27;20537;-60
2022/04/27 09:54:37;;;;;;;6.30;2.03;;;;;;;22.33;36.53;99318.81;5115052;28;20067;-65
2022/04/27 09:57:04;;;;;;;3.88;2.00;;;;;;;22.30;36.53;99313.22;5114875;27;20405;-65
2022/04/27 09:59:36;;;;;;;4.10;2.20;;;;;;;22.30;36.69;99314.03;5112913;27;20043;-63
2022/04/27 10:02:13;;;;;;;2.95;1.88;;;;;;;22.32;36.63;99317.22;5113979;28;20146;-66
2022/04/27 10:04:40;;;;;;;5.32;2.83;;;;;;;22.40;36.13;99309.72;5110832;27;20547;-73
2022/04/27 10:07:07;;;;;;;5.55;2.50;;;;;;;22.36;35.96;99311.66;5115260;27;20051;-73
2022/04/27 10:09:33;;;;;;;5.22;2.63;;;;;;;22.33;35.86;99318.81;5117280;27;20043;-59
2022/04/27 10:12:03;;;;;;;4.53;2.22;;;;;;;22.31;36.12;99318.41;5107600;27;20051;-58
2022/04/27 10:14:29;;;;;;;4.93;2.17;;;;;;;22.30;35.89;99307.66;5114242;27;20158;-59
2022/04/27 10:16:56;;;;;;;3.35;1.80;;;;;;;22.27;36.02;99305.63;5116996;27;20134;-65
2022/04/27 10:19:22;;;;;;;3.65;1.77;;;;;;;22.28;36.49;99301.66;5121607;27;20073;-60
2022/04/27 10:21:56;;;;;;;6.30;1.65;;;;;;;22.40;36.69;99293.78;5118365;27;20078;-59
2022/04/27 10:24:34;;;;;;;3.58;1.55;;;;;;;22.34;35.60;99295.34;5106882;27;20100;-59
2022/04/27 10:27:19;;;;;;;3.50;1.40;;;;;;;22.31;35.99;99301.69;5116421;27;20074;-60
2022/04/27 10:30:02;;;;;;;9.77;4.50;;;;;;;22.28;35.77;99291.31;5113562;28;20325;-73
2022/04/27 10:32:41;;;;;;;10.98;7.05;;;;;;;22.28;35.49;99290.50;5112685;28;20097;-73
2022/04/27 10:35:16;;;;;;;14.77;8.20;;;;;;;22.28;35.25;99287.72;5121342;28;20066;-72
2022/04/27 10:38:02;;;;;;;8.13;3.92;;;;;;;22.27;35.27;99286.13;5126423;27;20066;-73
2022/04/27 10:40:38;;;;;;;5.30;3.08;;;;;;;22.22;35.21;99276.97;5114587;27;20035;-73
2022/04/27 10:43:08;;;;;;;5.22;2.50;;;;;;;22.22;35.23;99276.16;5118246;27;20120;-73
2022/04/27 10:45:35;;;;;;;3.67;1.95;;;;;;;22.16;35.54;99264.56;5109310;27;20044;-60
2022/04/27 10:48:03;;;;;;;4.63;1.90;;;;;;;22.21;35.17;99277.31;5119400;28;20043;-59
2022/04/27 10:50:36;;;;;;;4.85;2.00;;;;;;;22.15;35.44;99264.97;5123811;27;20043;-60
2022/04/27 10:53:22;;;;;;;3.33;1.58;;;;;;;22.17;35.55;99265.38;5110197;27;20146;-60
2022/04/27 10:55:54;;;;;;;3.83;1.90;;;;;;;22.20;35.31;99267.38;5116946;27;20561;-59
2022/04/27 10:58:22;;;;;;;3.85;1.98;;;;;;;22.21;35.18;99257.81;5118733;27;20066;-73
2022/04/27 11:01:03;;;;;;;4.60;1.90;;;;;;;22.16;35.58;99245.06;5115787;27;20039;-72
2022/04/27 11:03:29;;;;;;;2.92;1.60;;;;;;;22.18;35.44;99253.84;5121949;27;20117;-72
2022/04/27 11:06:01;;;;;;;4.68;1.85;;;;;;;22.17;35.82;99252.25;5098514;27;20039;-72
2022/04/27 11:08:38;;;;;;;3.63;1.60;;;;;;;22.18;35.97;99253.03;5109590;28;20119;-70
2022/04/27 11:11:06;;;;;;;3.90;1.88;;;;;;;22.17;35.73;99246.66;5111302;27;20105;-59
2022/04/27 11:13:36;;;;;;;3.60;1.60;;;;;;;22.22;35.77;99237.16;5110227;27;20035;-59
2022/04/27 11:16:10;;;;;;;3.25;1.80;;;;;;;22.13;35.64;99234.69;5113053;27;20541;-70
2022/04/27 11:18:49;;;;;;;4.25;1.95;;;;;;;22.21;34.92;99229.97;5119447;28;20107;-69
2022/04/27 11:21:17;;;;;;;7.90;2.00;;;;;;;22.20;34.78;99229.16;5109696;27;20048;-71
2022/04/27 11:23:42;;;;;;;3.92;1.83;;;;;;;22.19;34.61;99226.78;5106531;27;21438;-69
2022/04/27 11:26:08;;;;;;;7.70;1.92;;;;;;;22.21;35.36;99230.75;5112448;27;20032;-67
2022/04/27 11:28:39;;;;;;;4.80;2.05;;;;;;;22.22;35.27;99242.72;5111422;27;20579;-71
2022/04/27 11:31:06;;;;;;;5.10;1.70;;;;;;;22.23;35.16;99233.97;5069521;28;20123;-72
2022/04/27 11:33:39;;;;;;;3.85;1.80;;;;;;;22.22;35.12;99221.25;5105485;27;20299;-69
2022/04/27 11:36:04;;;;;;;5.88;2.00;;;;;;;22.23;34.90;99222.84;5107171;27;20143;-67
2022/04/27 11:38:37;;;;;;;5.75;1.88;;;;;;;22.23;35.50;99228.41;5105203;27;20107;-79
2022/04/27 11:41:04;;;;;;;8.57;2.40;;;;;;;22.28;35.36;99224.44;5100390;27;20042;-70
2022/04/27 11:43:32;;;;;;;6.15;1.90;;;;;;;22.36;34.89;99228.88;5072120;28;20135;-64
2022/04/27 11:45:59;;;;;;;4.13;2.00;;;;;;;22.44;35.05;99227.72;5104356;27;20056;-67
2022/04/27 11:48:29;;;;;;;8.63;3.50;;;;;;;22.46;34.72;99222.56;5108778;27;20035;-65
2022/04/27 11:51:01;;;;;;;21.77;9.63;;;;;;;22.45;34.47;99223.75;5106413;27;20085;-67
2022/04/27 11:53:28;;;;;;;16.23;9.83;;;;;;;22.44;34.36;99219.38;5112485;27;20066;-68